createdAt,value
2019-03-11T00:00:21.715Z,99.90
2019-03-11T00:02:52.588Z,99.90
2019-03-11T00:05:21.882Z,99.90
2019-03-11T00:07:51.223Z,99.90
2019-03-11T00:10:20.596Z,99.90
2019-03-11T00:12:49.951Z,99.90
2019-03-11T00:15:19.297Z,99.90
2019-03-11T00:17:48.540Z,99.90
2019-03-11T00:20:17.774Z,99.90
2019-03-11T00:22:47.002Z,99.90
2019-03-11T00:25:16.303Z,99.90
2019-03-11T00:27:45.554Z,99.90
2019-03-11T00:30:14.931Z,99.90
2019-03-11T00:32:44.393Z,99.90
2019-03-11T00:35:13.693Z,99.90
2019-03-11T00:37:43.019Z,99.90
2019-03-11T00:40:14.177Z,99.90
2019-03-11T00:42:43.608Z,99.90
2019-03-11T00:45:14.262Z,99.90
2019-03-11T00:47:43.494Z,99.90
2019-03-11T00:50:13.266Z,99.90
2019-03-11T00:52:42.732Z,99.90
2019-03-11T00:55:12.817Z,99.90
2019-03-11T00:57:42.178Z,99.90
2019-03-11T01:00:14.803Z,99.90
2019-03-11T01:02:44.163Z,99.90
2019-03-11T01:05:13.364Z,99.90
2019-03-11T01:07:42.604Z,99.90
2019-03-11T01:10:11.869Z,99.90
2019-03-11T01:12:41.118Z,99.90
2019-03-11T01:15:11.515Z,99.90
2019-03-11T01:17:40.743Z,99.90
2019-03-11T01:20:11.430Z,99.90
2019-03-11T01:22:40.779Z,99.90
2019-03-11T01:25:12.238Z,99.90
2019-03-11T01:27:41.806Z,99.90
2019-03-11T01:30:13.433Z,99.90
2019-03-11T01:32:42.649Z,99.90
2019-03-11T01:35:11.862Z,99.90
2019-03-11T01:37:41.079Z,99.90
2019-03-11T01:40:12.767Z,99.90
2019-03-11T01:42:42.033Z,99.90
2019-03-11T01:45:13.671Z,99.90
2019-03-11T01:47:42.963Z,99.90
2019-03-11T01:50:14.186Z,99.90
2019-03-11T01:52:43.523Z,99.90
2019-03-11T01:55:14.107Z,99.90
2019-03-11T01:57:43.407Z,99.90
2019-03-11T02:00:15.961Z,99.90
2019-03-11T02:02:45.205Z,99.90
2019-03-11T02:05:14.507Z,99.90
2019-03-11T02:07:45.876Z,99.90
2019-03-11T02:10:16.557Z,99.60
2019-03-11T02:12:45.938Z,99.00
2019-03-11T02:15:16.567Z,98.60
2019-03-11T02:17:45.813Z,98.10
2019-03-11T02:20:16.344Z,97.70
2019-03-11T02:22:45.584Z,97.10
2019-03-11T02:25:15.378Z,97.00
2019-03-11T02:27:44.764Z,96.40
2019-03-11T02:30:15.684Z,96.40
2019-03-11T02:32:45.046Z,96.20
2019-03-11T02:35:15.952Z,95.60
2019-03-11T02:37:45.268Z,95.90
2019-03-11T02:40:14.862Z,95.80
2019-03-11T02:42:44.140Z,95.40
2019-03-11T02:45:13.411Z,95.40
2019-03-11T02:47:42.673Z,95.70
2019-03-11T02:50:11.967Z,95.50
2019-03-11T02:52:41.340Z,95.40
2019-03-11T02:55:10.676Z,95.40
2019-03-11T02:57:40.043Z,94.90
2019-03-11T03:00:13.063Z,95.20
2019-03-11T03:02:44.285Z,95.30
2019-03-11T03:05:15.222Z,95.60
2019-03-11T03:07:44.588Z,95.50
2019-03-11T03:10:13.860Z,95.60
2019-03-11T03:12:43.241Z,95.40
2019-03-11T03:15:12.634Z,95.60
2019-03-11T03:17:42.022Z,96.10
2019-03-11T03:20:13.170Z,96.40
2019-03-11T03:22:42.567Z,97.10
2019-03-11T03:25:12.908Z,98.20
2019-03-11T03:27:42.243Z,99.90
2019-03-11T03:30:14.785Z,99.90
2019-03-11T03:32:44.145Z,99.90
2019-03-11T03:35:13.494Z,99.90
2019-03-11T03:37:42.986Z,99.90
2019-03-11T03:40:14.978Z,99.90
2019-03-11T03:42:44.388Z,99.90
2019-03-11T03:45:16.893Z,99.90
2019-03-11T03:47:46.195Z,99.90
2019-03-11T03:50:15.524Z,99.90
2019-03-11T03:52:44.850Z,99.90
2019-03-11T03:55:14.113Z,99.90
2019-03-11T03:57:44.477Z,99.90
2019-03-11T04:00:13.918Z,99.90
2019-03-11T04:02:43.252Z,99.90
2019-03-11T04:05:13.119Z,99.90
2019-03-11T04:31:48.190Z,99.90
2019-03-11T04:34:17.475Z,99.90
2019-03-11T04:36:46.900Z,99.90
2019-03-11T04:39:16.313Z,99.90
2019-03-11T04:41:45.591Z,99.90
2019-03-11T04:44:14.875Z,99.90
2019-03-11T04:46:44.076Z,99.90
2019-03-11T04:49:13.330Z,99.90
2019-03-11T04:51:42.740Z,99.90
2019-03-11T04:54:13.579Z,99.90
2019-03-11T04:56:43.901Z,99.90
2019-03-11T04:59:13.760Z,99.90
2019-03-11T05:01:43.030Z,99.90
2019-03-11T05:04:12.336Z,99.90
2019-03-11T05:06:44.952Z,99.90
2019-03-11T05:09:17.083Z,99.90
2019-03-11T05:11:46.416Z,99.90
2019-03-11T05:14:15.661Z,99.90
2019-03-11T05:16:45.015Z,99.90
2019-03-11T05:19:14.301Z,99.90
2019-03-11T05:21:43.635Z,99.90
2019-03-11T05:24:12.933Z,99.90
2019-03-11T05:26:42.285Z,99.90
2019-03-11T05:29:11.714Z,99.90
2019-03-11T05:31:41.077Z,99.90
2019-03-11T05:34:10.329Z,99.90
2019-03-11T05:36:39.629Z,99.90
2019-03-11T05:39:08.941Z,99.90
2019-03-11T05:41:38.212Z,99.90
2019-03-11T05:44:07.549Z,99.90
2019-03-11T05:46:36.894Z,99.90
2019-03-11T05:49:06.216Z,99.90
2019-03-11T05:51:35.548Z,99.90
2019-03-11T05:54:04.846Z,99.90
2019-03-11T05:56:34.283Z,99.90
2019-03-11T05:59:03.755Z,99.90
2019-03-11T06:01:33.022Z,99.90
2019-03-11T06:04:02.351Z,99.90
2019-03-11T06:06:31.719Z,99.90
2019-03-11T06:09:01.020Z,99.90
2019-03-11T06:11:31.897Z,99.90
2019-03-11T06:14:01.186Z,99.90
2019-03-11T06:16:30.497Z,99.90
2019-03-11T06:18:59.883Z,99.90
2019-03-11T06:21:30.918Z,99.90
2019-03-11T06:24:00.252Z,99.90
2019-03-11T06:26:29.640Z,99.90
2019-03-11T06:28:58.916Z,99.90
2019-03-11T06:31:28.211Z,99.90
2019-03-11T06:33:57.454Z,99.90
2019-03-11T06:36:26.828Z,99.90
2019-03-11T06:39:05.309Z,99.90
2019-03-11T06:41:27.169Z,99.90
2019-03-11T06:43:56.969Z,99.90
2019-03-11T06:46:26.438Z,99.90
2019-03-11T06:48:55.859Z,99.90
2019-03-11T06:51:25.064Z,99.90
2019-03-11T06:53:54.365Z,99.90
2019-03-11T06:56:23.563Z,99.90
2019-03-11T06:58:52.889Z,99.90
2019-03-11T07:01:22.153Z,99.90
2019-03-11T07:03:51.479Z,99.90
2019-03-11T07:06:20.785Z,99.90
2019-03-11T07:08:50.161Z,99.90
2019-03-11T07:11:19.476Z,99.90
2019-03-11T07:13:48.748Z,99.90
2019-03-11T07:16:18.039Z,99.90
2019-03-11T07:18:47.390Z,99.90
2019-03-11T07:21:16.623Z,99.90
2019-03-11T07:23:46.033Z,99.90
2019-03-11T07:26:15.271Z,99.90
2019-03-11T07:28:44.665Z,99.90
2019-03-11T07:31:13.995Z,99.90
2019-03-11T07:33:43.363Z,99.90
2019-03-11T07:36:12.621Z,99.90
2019-03-11T07:38:41.986Z,99.90
2019-03-11T07:41:11.282Z,99.90
2019-03-11T07:43:40.568Z,99.90
2019-03-11T07:46:09.802Z,99.90
2019-03-11T07:48:39.285Z,99.90
2019-03-11T07:51:08.544Z,99.90
2019-03-11T07:53:37.895Z,99.90
2019-03-11T07:56:07.218Z,98.90
2019-03-11T07:58:36.475Z,99.90
2019-03-11T08:01:05.799Z,97.60
2019-03-11T08:03:35.195Z,99.60
2019-03-11T08:06:04.639Z,99.10
2019-03-11T08:08:34.091Z,99.00
2019-03-11T08:11:03.298Z,98.30
2019-03-11T08:13:33.211Z,97.50
2019-03-11T08:16:02.598Z,97.20
2019-03-11T08:18:35.248Z,97.20
2019-03-11T08:21:02.982Z,98.70
2019-03-11T08:23:32.453Z,97.80
2019-03-11T08:26:01.879Z,98.60
2019-03-11T08:28:31.104Z,95.70
2019-03-11T08:31:01.476Z,96.20
2019-03-11T08:33:30.873Z,95.50
2019-03-11T08:36:00.231Z,95.40
2019-03-11T08:38:30.096Z,96.40
2019-03-11T08:40:59.406Z,95.90
2019-03-11T08:43:28.702Z,97.10
2019-03-11T08:45:57.913Z,95.60
2019-03-11T08:48:27.234Z,94.80
2019-03-11T08:50:56.600Z,95.40
2019-03-11T08:53:25.787Z,95.00
2019-03-11T08:55:55.092Z,94.50
2019-03-11T08:58:24.400Z,93.30
2019-03-11T09:00:53.697Z,95.30
2019-03-11T09:03:23.042Z,93.60
2019-03-11T09:05:52.392Z,91.70
2019-03-11T09:08:21.594Z,93.00
2019-03-11T09:10:50.966Z,91.30
2019-03-11T09:13:20.450Z,92.50
2019-03-11T09:15:52.661Z,92.60
2019-03-11T09:18:21.577Z,91.90
2019-03-11T09:20:50.862Z,91.40
2019-03-11T09:23:20.137Z,91.40
2019-03-11T09:25:50.536Z,91.30
2019-03-11T09:28:19.889Z,90.30
2019-03-11T09:30:49.207Z,88.90
2019-03-11T09:33:19.607Z,90.80
2019-03-11T09:35:49.013Z,91.00
2019-03-11T09:38:18.232Z,92.00
2019-03-11T09:40:47.595Z,90.80
2019-03-11T09:43:16.889Z,90.80
2019-03-11T09:45:46.196Z,90.40
2019-03-11T09:48:15.487Z,87.50
2019-03-11T09:50:44.831Z,89.80
2019-03-11T09:53:14.188Z,91.30
2019-03-11T09:55:43.480Z,90.80
2019-03-11T09:58:12.812Z,91.60
2019-03-11T10:00:42.207Z,88.00
2019-03-11T10:03:11.439Z,85.70
2019-03-11T10:05:40.730Z,88.80
2019-03-11T10:08:11.046Z,87.00
2019-03-11T10:10:40.484Z,87.90
2019-03-11T10:13:09.775Z,85.60
2019-03-11T10:15:39.133Z,85.10
2019-03-11T10:18:08.497Z,85.90
2019-03-11T10:20:37.939Z,86.70
2019-03-11T10:23:07.133Z,90.30
2019-03-11T10:25:36.440Z,88.90
2019-03-11T10:28:05.823Z,87.60
2019-03-11T10:30:35.240Z,91.50
2019-03-11T10:33:04.536Z,91.20
2019-03-11T10:35:33.852Z,90.60
2019-03-11T10:38:03.371Z,92.10
2019-03-11T10:40:32.772Z,91.60
2019-03-11T10:43:02.073Z,90.70
2019-03-11T10:45:32.312Z,91.00
2019-03-11T10:48:01.897Z,91.10
2019-03-11T10:50:31.223Z,90.70
2019-03-11T10:53:00.540Z,91.10
2019-03-11T10:55:29.888Z,91.40
2019-03-11T10:57:59.253Z,91.60
2019-03-11T11:00:31.248Z,92.00
2019-03-11T11:03:00.556Z,91.80
2019-03-11T11:05:29.808Z,91.40
2019-03-11T11:07:59.147Z,90.40
2019-03-11T11:10:28.475Z,90.30
2019-03-11T11:12:57.935Z,88.20
2019-03-11T11:15:29.779Z,87.20
2019-03-11T11:17:59.012Z,81.70
2019-03-11T11:20:28.304Z,79.70
2019-03-11T11:22:57.678Z,79.00
2019-03-11T11:25:28.285Z,78.70
2019-03-11T11:27:57.605Z,74.80
2019-03-11T11:30:28.067Z,75.80
2019-03-11T11:32:57.558Z,78.40
2019-03-11T11:35:26.816Z,76.60
2019-03-11T11:37:56.105Z,84.40
2019-03-11T11:40:26.184Z,80.00
2019-03-11T11:42:55.467Z,82.40
2019-03-11T11:45:27.487Z,83.90
2019-03-11T11:47:56.831Z,82.90
2019-03-11T11:50:26.375Z,80.70
2019-03-11T11:52:55.801Z,80.60
2019-03-11T11:55:25.249Z,81.40
2019-03-11T11:57:54.758Z,79.50
2019-03-11T12:00:27.033Z,77.00
2019-03-11T12:02:56.423Z,77.20
2019-03-11T12:05:25.720Z,78.80
2019-03-11T12:07:55.121Z,77.10
2019-03-11T12:10:26.217Z,75.70
2019-03-11T12:12:55.690Z,80.00
2019-03-11T12:15:25.018Z,78.90
2019-03-11T12:17:54.380Z,76.40
2019-03-11T12:20:26.370Z,76.10
2019-03-11T12:22:56.776Z,75.50
2019-03-11T12:25:26.110Z,79.00
2019-03-11T12:27:58.006Z,75.30
2019-03-11T12:30:28.271Z,79.20
2019-03-11T12:32:57.657Z,79.00
2019-03-11T12:35:28.064Z,75.30
2019-03-11T12:37:57.384Z,76.70
2019-03-11T12:40:26.874Z,75.50
2019-03-11T12:42:56.154Z,79.60
2019-03-11T12:45:26.149Z,77.10
2019-03-11T12:47:55.505Z,77.10
2019-03-11T12:50:27.089Z,78.20
2019-03-11T12:52:56.473Z,79.90
2019-03-11T12:55:25.771Z,75.40
2019-03-11T12:57:55.105Z,77.50
2019-03-11T13:00:25.278Z,75.50
2019-03-11T13:02:54.730Z,75.50
2019-03-11T13:05:24.082Z,78.10
2019-03-11T13:07:53.446Z,73.90
2019-03-11T13:10:25.045Z,76.40
2019-03-11T13:12:54.736Z,76.10
2019-03-11T13:15:24.104Z,75.90
2019-03-11T13:17:53.485Z,75.60
2019-03-11T13:20:22.344Z,71.90
2019-03-11T13:22:52.213Z,73.40
2019-03-11T13:25:21.560Z,74.20
2019-03-11T13:27:50.850Z,68.30
2019-03-11T13:30:20.231Z,71.60
2019-03-11T13:32:49.621Z,68.10
2019-03-11T13:35:18.887Z,67.80
2019-03-11T13:37:48.104Z,68.00
2019-03-11T13:40:17.508Z,71.20
2019-03-11T13:42:47.925Z,69.80
2019-03-11T13:45:18.432Z,65.40
2019-03-11T13:47:47.863Z,64.70
2019-03-11T13:50:18.239Z,61.60
2019-03-11T13:52:47.606Z,67.30
2019-03-11T13:55:17.472Z,65.50
2019-03-11T13:57:46.874Z,64.30
2019-03-11T14:00:19.490Z,64.20
2019-03-11T14:02:48.957Z,64.60
2019-03-11T14:05:18.510Z,64.00
2019-03-11T14:07:47.874Z,65.90
2019-03-11T14:10:17.189Z,67.70
2019-03-11T14:12:46.523Z,68.80
2019-03-11T14:15:18.044Z,68.20
2019-03-11T14:17:47.502Z,67.30
2019-03-11T14:20:16.809Z,66.10
2019-03-11T14:22:47.258Z,64.50
2019-03-11T14:25:16.626Z,65.60
2019-03-11T14:27:45.985Z,65.30
2019-03-11T14:30:17.647Z,66.20
2019-03-11T14:32:47.075Z,66.10
2019-03-11T14:35:16.393Z,65.30
2019-03-11T14:37:45.677Z,67.60
2019-03-11T14:40:16.275Z,65.20
2019-03-11T14:42:45.587Z,63.80
2019-03-11T14:45:17.242Z,65.80
2019-03-11T14:47:48.413Z,65.80
2019-03-11T14:50:18.343Z,68.00
2019-03-11T14:52:47.647Z,65.80
2019-03-11T14:55:16.958Z,62.70
2019-03-11T14:57:46.265Z,65.30
2019-03-11T15:00:18.955Z,65.90
2019-03-11T15:02:48.587Z,68.20
2019-03-11T15:05:18.999Z,65.70
2019-03-11T15:07:48.514Z,66.20
2019-03-11T15:10:19.993Z,67.50
2019-03-11T15:12:49.582Z,66.40
2019-03-11T15:15:21.450Z,67.10
2019-03-11T15:17:50.807Z,68.90
2019-03-11T15:20:20.143Z,69.90
2019-03-11T15:22:49.485Z,72.20
2019-03-11T15:25:19.104Z,70.60
2019-03-11T15:27:48.663Z,71.90
2019-03-11T15:30:19.540Z,71.30
2019-03-11T15:32:48.864Z,73.80
2019-03-11T15:35:19.305Z,74.10
2019-03-11T15:37:48.559Z,75.30
2019-03-11T15:40:18.545Z,76.60
2019-03-11T15:42:51.274Z,77.70
2019-03-11T15:45:21.909Z,74.80
2019-03-11T15:47:51.173Z,72.70
2019-03-11T15:50:21.820Z,73.40
2019-03-11T15:52:51.304Z,73.10
2019-03-11T15:55:20.666Z,73.90
2019-03-11T15:57:49.991Z,74.20
2019-03-11T16:00:22.405Z,75.00
2019-03-11T16:02:51.814Z,75.50
2019-03-11T16:05:23.375Z,75.30
2019-03-11T16:07:52.834Z,76.00
2019-03-11T16:10:23.081Z,76.90
2019-03-11T16:12:52.347Z,78.70
2019-03-11T16:15:21.713Z,79.10
2019-03-11T16:17:50.987Z,80.90
2019-03-11T16:20:23.443Z,81.70
2019-03-11T16:22:52.839Z,83.70
2019-03-11T16:25:22.057Z,84.20
2019-03-11T16:27:52.763Z,82.80
2019-03-11T16:30:23.665Z,84.00
2019-03-11T16:32:59.992Z,83.90
2019-03-11T16:35:27.118Z,85.00
2019-03-11T16:37:56.488Z,85.00
2019-03-11T16:40:25.907Z,85.70
2019-03-11T16:42:55.304Z,86.20
2019-03-11T16:45:24.641Z,86.60
2019-03-11T16:47:54.028Z,87.20
2019-03-11T16:50:24.679Z,88.00
2019-03-11T16:52:54.115Z,88.30
2019-03-11T16:55:25.785Z,88.60
2019-03-11T16:57:55.076Z,87.80
2019-03-11T17:00:27.069Z,88.70
2019-03-11T17:02:56.346Z,89.70
2019-03-11T17:05:25.622Z,90.00
2019-03-11T17:07:54.978Z,91.40
2019-03-11T17:10:25.034Z,91.40
2019-03-11T17:12:54.495Z,90.40
2019-03-11T17:15:23.831Z,89.50
2019-03-11T17:17:53.289Z,90.40
2019-03-11T17:20:23.638Z,90.20
2019-03-11T17:22:53.023Z,90.10
2019-03-11T17:25:22.314Z,89.40
2019-03-11T17:27:51.683Z,88.20
2019-03-11T17:30:22.888Z,86.60
2019-03-11T17:32:52.244Z,88.60
2019-03-11T17:35:21.582Z,90.20
2019-03-11T17:37:50.874Z,89.90
2019-03-11T17:40:22.149Z,90.00
2019-03-11T17:42:51.527Z,90.40
2019-03-11T17:45:20.948Z,90.50
2019-03-11T17:47:50.332Z,90.90
2019-03-11T17:50:21.043Z,91.20
2019-03-11T17:52:50.331Z,91.40
2019-03-11T17:55:20.227Z,91.90
2019-03-11T17:57:49.550Z,91.80
2019-03-11T18:00:20.938Z,91.80
2019-03-11T18:02:50.319Z,91.90
2019-03-11T18:05:19.689Z,91.50
2019-03-11T18:07:49.318Z,91.20
2019-03-11T18:10:19.661Z,91.00
2019-03-11T18:12:49.675Z,91.20
2019-03-11T18:15:18.925Z,90.70
2019-03-11T18:17:48.583Z,91.20
2019-03-11T18:20:18.942Z,91.10
2019-03-11T18:22:48.523Z,91.30
2019-03-11T18:25:20.967Z,91.60
2019-03-11T18:27:50.379Z,91.70
2019-03-11T18:30:21.500Z,92.30
2019-03-11T18:32:50.843Z,92.10
2019-03-11T18:35:20.098Z,92.60
2019-03-11T18:37:49.513Z,92.90
2019-03-11T18:40:19.729Z,92.50
2019-03-11T18:42:49.080Z,93.00
2019-03-11T18:45:19.419Z,93.50
2019-03-11T18:47:48.828Z,93.40
2019-03-11T18:50:20.489Z,93.90
2019-03-11T18:52:49.724Z,93.30
2019-03-11T18:55:20.376Z,93.10
2019-03-11T18:57:49.763Z,93.20
2019-03-11T19:00:20.222Z,93.20
2019-03-11T19:02:49.641Z,93.10
2019-03-11T19:05:22.561Z,93.30
2019-03-11T19:07:54.925Z,93.00
2019-03-11T19:10:23.182Z,92.90
2019-03-11T19:12:52.633Z,93.00
2019-03-11T19:15:23.344Z,92.90
2019-03-11T19:17:52.681Z,92.80
2019-03-11T19:20:23.357Z,92.90
2019-03-11T19:22:52.780Z,92.80
2019-03-11T19:25:22.123Z,92.90
2019-03-11T19:27:51.614Z,93.00
2019-03-11T19:30:23.569Z,93.10
2019-03-11T19:32:53.120Z,93.30
2019-03-11T19:35:23.922Z,93.30
2019-03-11T19:37:53.258Z,93.30
2019-03-11T19:40:25.399Z,93.30
2019-03-11T19:42:55.079Z,93.60
2019-03-11T19:45:24.898Z,93.50
2019-03-11T19:47:54.338Z,93.90
2019-03-11T19:50:25.190Z,93.80
2019-03-11T19:52:59.065Z,94.10
2019-03-11T19:55:25.964Z,94.10
2019-03-11T19:57:57.574Z,94.30
2019-03-11T20:00:27.204Z,94.40
2019-03-11T20:02:56.881Z,94.50
2019-03-11T20:05:28.014Z,94.60
2019-03-11T20:07:57.547Z,94.80
2019-03-11T20:10:27.029Z,95.00
2019-03-11T20:12:57.559Z,95.10
2019-03-11T20:15:47.056Z,95.60
2019-03-11T20:18:17.189Z,95.70
2019-03-11T20:20:46.513Z,95.90
2019-03-11T20:23:15.873Z,96.30
2019-03-11T20:25:48.716Z,96.40
2019-03-11T20:28:18.144Z,96.60
2019-03-11T20:30:48.157Z,96.70
2019-03-11T20:33:19.085Z,97.10
2019-03-11T20:35:50.717Z,97.20
2019-03-11T20:38:21.425Z,97.50
2019-03-11T20:40:52.793Z,97.40
2019-03-11T20:43:23.049Z,97.40
2019-03-11T20:45:52.304Z,97.50
2019-03-11T20:48:21.715Z,97.50
2019-03-11T20:50:52.682Z,97.50
2019-03-11T20:53:22.088Z,97.50
2019-03-11T20:55:53.676Z,97.50
2019-03-11T20:58:23.119Z,97.50
2019-03-11T21:00:53.528Z,97.80
2019-03-11T21:03:22.956Z,97.80
2019-03-11T21:05:55.791Z,97.80
2019-03-11T21:08:26.302Z,98.10
2019-03-11T21:10:55.700Z,98.10
2019-03-11T21:13:25.055Z,97.90
2019-03-11T21:15:54.349Z,98.20
2019-03-11T21:18:23.641Z,98.10
2019-03-11T21:21:04.093Z,98.10
2019-03-11T21:23:26.186Z,98.30
2019-03-11T21:25:56.791Z,98.10
2019-03-11T21:28:26.215Z,97.90
2019-03-11T21:30:57.526Z,97.90
2019-03-11T21:33:30.701Z,98.10
2019-03-11T21:36:00.148Z,98.30
2019-03-11T21:38:29.446Z,98.60
2019-03-11T21:40:58.863Z,98.50
2019-03-11T21:43:28.308Z,98.50
2019-03-11T21:45:57.683Z,99.10
2019-03-11T21:48:27.056Z,98.80
2019-03-11T21:50:56.338Z,99.10
2019-03-11T21:53:25.720Z,99.20
2019-03-11T21:55:55.101Z,99.30
2019-03-11T21:58:24.437Z,99.50
2019-03-11T22:00:53.954Z,99.30
2019-03-11T22:03:23.357Z,99.40
2019-03-11T22:05:52.755Z,99.50
2019-03-11T22:08:22.027Z,99.80
2019-03-11T22:10:51.397Z,99.90
2019-03-11T22:13:20.843Z,99.90
2019-03-11T22:15:50.241Z,99.90
2019-03-11T22:18:19.569Z,99.90
2019-03-11T22:20:48.912Z,99.90
2019-03-11T22:23:18.265Z,99.90
2019-03-11T22:25:47.539Z,99.90
2019-03-11T22:28:16.971Z,99.90
2019-03-11T22:30:46.369Z,99.90
2019-03-11T22:33:28.773Z,99.90
2019-03-11T22:35:58.137Z,99.90
2019-03-11T22:38:27.479Z,99.90
2019-03-11T22:40:56.947Z,99.90
2019-03-11T22:43:26.436Z,99.90
2019-03-11T22:45:55.683Z,99.90
2019-03-11T22:48:24.887Z,99.90
2019-03-11T22:50:54.150Z,99.90
2019-03-11T22:53:23.568Z,99.90
2019-03-11T22:55:52.852Z,99.90
2019-03-11T22:58:22.207Z,99.90
2019-03-11T23:00:56.543Z,99.90
2019-03-11T23:03:27.502Z,99.90
2019-03-11T23:05:58.566Z,99.90
2019-03-11T23:08:27.861Z,99.90
2019-03-11T23:10:57.097Z,99.90
2019-03-11T23:13:26.436Z,99.90
2019-03-11T23:15:55.707Z,99.90
2019-03-11T23:18:25.054Z,99.90
2019-03-11T23:20:54.380Z,99.90
2019-03-11T23:23:23.722Z,99.90
2019-03-11T23:25:53.127Z,99.90
2019-03-11T23:28:22.450Z,99.90
2019-03-11T23:30:51.712Z,99.90
2019-03-11T23:33:21.026Z,99.90
2019-03-11T23:35:50.377Z,99.90
2019-03-11T23:38:19.700Z,99.90
2019-03-11T23:40:49.061Z,99.90
2019-03-11T23:43:18.289Z,99.90
2019-03-11T23:45:47.566Z,99.90
2019-03-11T23:48:16.916Z,99.90
2019-03-11T23:50:46.275Z,99.90
2019-03-11T23:53:15.632Z,99.90
2019-03-11T23:55:44.952Z,99.90
2019-03-11T23:58:14.282Z,99.90
